createdAt,value
2023-04-19T00:00:26.705Z,3.71
2023-04-19T00:01:26.626Z,3.73
2023-04-19T00:02:26.767Z,3.72
2023-04-19T00:03:26.818Z,3.72
2023-04-19T00:04:26.851Z,3.69
2023-04-19T00:05:26.981Z,3.81
2023-04-19T00:06:26.754Z,3.71
2023-04-19T00:07:26.734Z,3.72
2023-04-19T00:08:26.707Z,3.67
2023-04-19T00:09:26.733Z,3.66
2023-04-19T00:10:26.772Z,3.72
2023-04-19T00:11:26.882Z,3.73
2023-04-19T00:12:26.759Z,3.66
2023-04-19T00:13:26.811Z,3.68
2023-04-19T00:14:26.820Z,3.68
2023-04-19T00:15:26.841Z,3.62
2023-04-19T00:16:26.920Z,3.62
2023-04-19T00:17:26.904Z,3.65
2023-04-19T00:18:26.844Z,3.52
2023-04-19T00:19:26.838Z,3.59
2023-04-19T00:20:26.925Z,3.69
2023-04-19T00:21:27.135Z,3.61
2023-04-19T00:22:26.932Z,3.56
2023-04-19T00:23:26.924Z,3.54
2023-04-19T00:24:26.946Z,3.47
2023-04-19T00:25:27.026Z,3.52
2023-04-19T00:26:26.994Z,3.54
2023-04-19T00:27:27.087Z,3.57
2023-04-19T00:28:27.177Z,3.56
2023-04-19T00:29:27.036Z,3.53
2023-04-19T00:30:27.031Z,3.59
2023-04-19T00:31:27.102Z,3.51
2023-04-19T00:32:27.239Z,3.46
2023-04-19T00:33:27.150Z,3.42
2023-04-19T00:34:27.122Z,3.49
2023-04-19T00:35:27.175Z,3.49
2023-04-19T00:36:27.174Z,3.42
2023-04-19T00:37:27.311Z,3.44
2023-04-19T00:38:27.164Z,3.4
2023-04-19T00:39:27.176Z,3.43
2023-04-19T00:40:27.235Z,3.32
2023-04-19T00:41:27.262Z,3.3
2023-04-19T00:42:27.227Z,3.32
2023-04-19T00:43:27.322Z,3.38
2023-04-19T00:44:27.245Z,3.39
2023-04-19T00:45:27.325Z,3.4
2023-04-19T00:46:27.470Z,3.41
2023-04-19T00:47:27.447Z,3.39
2023-04-19T00:48:27.288Z,3.39
2023-04-19T00:49:27.711Z,3.4
2023-04-19T00:50:27.431Z,3.33
2023-04-19T00:51:27.536Z,3.31
2023-04-19T00:52:27.406Z,3.34
2023-04-19T00:53:27.645Z,3.38
2023-04-19T00:54:27.497Z,3.35
2023-04-19T00:55:27.460Z,3.29
2023-04-19T00:56:27.502Z,3.23
2023-04-19T00:57:28.284Z,3.18
2023-04-19T00:58:28.527Z,3.19
2023-04-19T00:59:27.528Z,3.12
2023-04-19T01:00:32.730Z,3.26
2023-04-19T01:01:29.713Z,3.2
2023-04-19T01:02:29.581Z,3.17
2023-04-19T01:03:29.854Z,3.1
2023-04-19T01:04:29.705Z,3.13
2023-04-19T01:05:30.060Z,3.09
2023-04-19T01:06:29.899Z,3.06
2023-04-19T01:07:29.531Z,3.05
2023-04-19T01:08:29.595Z,3.08
2023-04-19T01:09:29.645Z,3.02
2023-04-19T01:10:30.130Z,2.96
2023-04-19T01:11:29.764Z,3.02
2023-04-19T01:12:29.611Z,2.98
2023-04-19T01:13:29.712Z,2.96
2023-04-19T01:14:29.743Z,2.94
2023-04-19T01:15:30.096Z,2.93
2023-04-19T01:16:29.819Z,2.96
2023-04-19T01:17:31.756Z,2.95
2023-04-19T01:18:29.873Z,2.93
2023-04-19T01:19:29.778Z,2.9
2023-04-19T01:20:29.870Z,2.9
2023-04-19T01:21:29.826Z,2.81
2023-04-19T01:22:29.875Z,2.79
2023-04-19T01:23:30.258Z,2.79
2023-04-19T01:24:30.396Z,2.8
2023-04-19T01:25:29.918Z,2.76
2023-04-19T01:26:29.903Z,2.76
2023-04-19T01:27:29.928Z,2.71
2023-04-19T01:28:30.071Z,2.69
2023-04-19T01:29:29.947Z,2.66
2023-04-19T01:30:30.117Z,2.72
2023-04-19T01:31:30.062Z,2.69
2023-04-19T01:32:30.057Z,2.62
2023-04-19T01:33:30.039Z,2.64
2023-04-19T01:34:29.962Z,2.61
2023-04-19T01:35:30.004Z,2.64
2023-04-19T01:36:30.181Z,2.56
2023-04-19T01:37:30.124Z,2.6
2023-04-19T01:38:30.028Z,2.54
2023-04-19T01:39:30.253Z,2.54
2023-04-19T01:40:30.045Z,2.51
2023-04-19T01:41:30.084Z,2.53
2023-04-19T01:42:30.127Z,2.49
2023-04-19T01:43:30.193Z,2.48
2023-04-19T01:44:30.266Z,2.51
2023-04-19T01:45:30.181Z,2.52
2023-04-19T01:46:30.217Z,2.43
2023-04-19T01:47:30.192Z,2.41
2023-04-19T01:48:30.189Z,2.44
2023-04-19T01:49:30.251Z,2.43
2023-04-19T01:50:31.027Z,2.42
2023-04-19T01:51:30.290Z,2.34
2023-04-19T01:52:30.267Z,2.32
2023-04-19T01:53:30.340Z,2.36
2023-04-19T01:54:30.285Z,2.38
2023-04-19T01:55:30.306Z,2.29
2023-04-19T01:56:30.338Z,2.31
2023-04-19T01:57:30.340Z,2.32
2023-04-19T01:58:30.354Z,2.27
2023-04-19T01:59:30.414Z,2.3
2023-04-19T02:00:30.414Z,2.27
2023-04-19T02:01:30.417Z,2.22
2023-04-19T02:02:30.565Z,2.22
2023-04-19T02:03:30.631Z,2.21
2023-04-19T02:04:30.709Z,2.11
2023-04-19T02:05:30.451Z,2.13
2023-04-19T02:06:30.521Z,2.11
2023-04-19T02:07:30.476Z,2.14
2023-04-19T02:08:30.562Z,2.09
2023-04-19T02:09:30.580Z,2.04
2023-04-19T02:10:30.565Z,2.14
2023-04-19T02:11:30.583Z,2.15
2023-04-19T02:12:30.586Z,2.04
2023-04-19T02:13:30.591Z,2.08
2023-04-19T02:14:30.859Z,2.04
2023-04-19T02:15:30.618Z,2.01
2023-04-19T02:16:30.800Z,2.02
2023-04-19T02:17:30.695Z,2.04
2023-04-19T02:18:30.644Z,1.98
2023-04-19T02:19:30.704Z,1.94
2023-04-19T02:20:30.704Z,1.95
2023-04-19T02:21:30.824Z,2.01
2023-04-19T02:22:30.718Z,1.98
2023-04-19T02:23:30.850Z,1.96
2023-04-19T02:24:30.765Z,1.97
2023-04-19T02:25:30.896Z,1.9
2023-04-19T02:26:30.750Z,1.88
2023-04-19T02:27:30.894Z,1.8
2023-04-19T02:28:31.259Z,1.85
2023-04-19T02:29:30.838Z,1.89
2023-04-19T02:30:30.903Z,1.86
2023-04-19T02:31:30.891Z,1.81
2023-04-19T02:32:30.916Z,1.78
2023-04-19T02:33:30.929Z,1.81
2023-04-19T02:34:31.077Z,1.79
2023-04-19T02:35:31.108Z,1.72
2023-04-19T02:36:31.034Z,1.7
2023-04-19T02:37:30.922Z,1.71
2023-04-19T02:38:30.965Z,1.77
2023-04-19T02:39:31.299Z,1.82
2023-04-19T02:40:31.271Z,1.81
2023-04-19T02:41:31.166Z,1.78
2023-04-19T02:42:31.080Z,1.71
2023-04-19T02:43:31.079Z,1.72
2023-04-19T02:44:31.086Z,1.68
2023-04-19T02:45:31.109Z,1.67
2023-04-19T02:46:31.228Z,1.68
2023-04-19T02:47:31.216Z,1.65
2023-04-19T02:48:31.152Z,1.62
2023-04-19T02:49:31.214Z,1.65
2023-04-19T02:50:32.264Z,1.66
2023-04-19T02:51:31.211Z,1.65
2023-04-19T02:52:31.437Z,1.63
2023-04-19T02:53:31.276Z,1.61
2023-04-19T02:54:31.262Z,1.64
2023-04-19T02:55:31.264Z,1.58
2023-04-19T02:56:31.296Z,1.58
2023-04-19T02:57:31.277Z,1.53
2023-04-19T02:58:31.400Z,1.51
2023-04-19T02:59:31.360Z,1.54
2023-04-19T03:00:31.324Z,1.51
2023-04-19T03:01:31.852Z,1.63
2023-04-19T03:02:31.447Z,1.62
2023-04-19T03:03:31.508Z,1.51
2023-04-19T03:04:31.531Z,1.51
2023-04-19T03:05:31.409Z,1.55
2023-04-19T03:06:31.452Z,1.52
2023-04-19T03:07:31.620Z,1.43
2023-04-19T03:08:31.571Z,1.44
2023-04-19T03:09:31.502Z,1.47
2023-04-19T03:10:31.512Z,1.41
2023-04-19T03:11:31.545Z,1.44
2023-04-19T03:12:31.577Z,1.45
2023-04-19T03:13:31.621Z,1.37
2023-04-19T03:14:31.646Z,1.38
2023-04-19T03:15:31.634Z,1.39
2023-04-19T03:16:35.631Z,1.38
2023-04-19T03:17:32.436Z,1.45
2023-04-19T03:18:32.316Z,1.44
2023-04-19T03:19:32.315Z,1.42
2023-04-19T03:20:32.352Z,1.38
2023-04-19T03:21:32.446Z,1.35
2023-04-19T03:22:32.421Z,1.35
2023-04-19T03:23:32.446Z,1.39
2023-04-19T03:24:32.430Z,1.4
2023-04-19T03:25:32.422Z,1.37
2023-04-19T03:26:32.428Z,1.41
2023-04-19T03:27:34.460Z,1.37
2023-04-19T03:28:32.608Z,1.41
2023-04-19T03:29:32.486Z,1.4
2023-04-19T03:30:32.497Z,1.4
2023-04-19T03:31:32.549Z,1.44
2023-04-19T03:32:32.577Z,1.39
2023-04-19T03:33:32.600Z,1.39
2023-04-19T03:34:32.617Z,1.4
2023-04-19T03:35:32.599Z,1.42
2023-04-19T03:36:32.661Z,1.42
2023-04-19T03:37:33.186Z,1.46
2023-04-19T03:38:33.198Z,1.48
2023-04-19T03:39:33.181Z,1.52
2023-04-19T03:40:33.247Z,1.51
2023-04-19T03:41:33.241Z,1.5
2023-04-19T03:42:33.204Z,1.55
2023-04-19T03:43:33.276Z,1.6
2023-04-19T03:44:33.409Z,1.6
2023-04-19T03:45:33.238Z,1.6
2023-04-19T03:46:33.341Z,1.61
2023-04-19T03:47:33.361Z,1.62
2023-04-19T03:48:33.355Z,1.64
2023-04-19T03:49:33.441Z,1.67
2023-04-19T03:50:33.373Z,1.65
2023-04-19T03:51:33.400Z,1.66
2023-04-19T03:52:33.537Z,1.68
2023-04-19T03:53:33.469Z,1.69
2023-04-19T03:54:33.416Z,1.71
2023-04-19T03:55:33.496Z,1.74
2023-04-19T03:56:33.469Z,1.74
2023-04-19T03:57:33.491Z,1.75
2023-04-19T03:58:33.527Z,1.76
2023-04-19T03:59:34.660Z,1.77
2023-04-19T04:00:33.548Z,1.77
2023-04-19T04:01:33.571Z,1.83
2023-04-19T04:02:33.683Z,1.87
2023-04-19T04:03:33.858Z,1.87
2023-04-19T04:04:33.935Z,1.9
2023-04-19T04:05:34.848Z,1.92
2023-04-19T04:06:33.674Z,1.95
2023-04-19T04:07:33.612Z,1.94
2023-04-19T04:08:33.660Z,1.98
2023-04-19T04:09:33.657Z,1.99
2023-04-19T04:10:33.670Z,2
2023-04-19T04:11:33.742Z,2.04
2023-04-19T04:12:33.919Z,2.08
2023-04-19T04:13:33.811Z,2.1
2023-04-19T04:14:33.718Z,2.12
2023-04-19T04:15:33.762Z,2.11
2023-04-19T04:16:34.047Z,2.16
2023-04-19T04:17:33.869Z,2.18
2023-04-19T04:18:33.844Z,2.21
2023-04-19T04:19:33.831Z,2.27
2023-04-19T04:20:33.820Z,2.26
2023-04-19T04:21:33.859Z,2.3
2023-04-19T04:22:33.882Z,2.31
2023-04-19T04:23:34.020Z,2.34
2023-04-19T04:24:39.878Z,2.38
2023-04-19T04:25:36.807Z,2.38
2023-04-19T04:26:36.899Z,2.38
2023-04-19T04:27:36.860Z,2.4
2023-04-19T04:28:36.807Z,2.45
2023-04-19T04:29:36.981Z,2.5
2023-04-19T04:30:36.678Z,2.53
2023-04-19T04:31:36.762Z,2.56
2023-04-19T04:32:39.520Z,2.57
2023-04-19T04:33:36.706Z,2.68
2023-04-19T04:34:36.747Z,2.64
2023-04-19T04:35:36.794Z,2.69
2023-04-19T04:36:36.845Z,2.73
2023-04-19T04:37:37.053Z,2.76
2023-04-19T04:38:36.980Z,2.84
2023-04-19T04:39:36.911Z,2.85
2023-04-19T04:40:36.947Z,2.93
2023-04-19T04:41:36.909Z,2.89
2023-04-19T04:42:36.945Z,2.9
2023-04-19T04:43:37.009Z,3.01
2023-04-19T04:44:36.986Z,3
2023-04-19T04:45:37.008Z,3.02
2023-04-19T04:46:36.991Z,3.07
2023-04-19T04:47:37.179Z,3.04
2023-04-19T04:48:37.009Z,3.13
2023-04-19T04:49:37.053Z,3.2
2023-04-19T04:50:37.281Z,3.17
2023-04-19T04:51:37.070Z,3.22
2023-04-19T04:52:37.086Z,3.25
2023-04-19T04:53:37.141Z,3.29
2023-04-19T04:54:37.114Z,3.31
2023-04-19T04:55:37.182Z,3.31
2023-04-19T04:56:37.194Z,3.4
2023-04-19T04:57:37.169Z,3.42
2023-04-19T04:58:37.263Z,3.46
2023-04-19T04:59:37.205Z,3.56
2023-04-19T05:00:37.228Z,3.64
2023-04-19T05:01:37.342Z,3.67
2023-04-19T05:02:37.269Z,3.63
2023-04-19T05:03:37.348Z,3.67
2023-04-19T05:04:37.387Z,3.63
2023-04-19T05:05:37.326Z,3.67
2023-04-19T05:06:37.304Z,3.7
2023-04-19T05:07:37.321Z,3.75
2023-04-19T05:08:37.321Z,3.76
2023-04-19T05:09:37.805Z,3.82
2023-04-19T05:10:37.351Z,3.83
2023-04-19T05:11:37.423Z,3.85
2023-04-19T05:12:38.318Z,3.9
2023-04-19T05:13:37.963Z,4.02
2023-04-19T05:14:37.508Z,4.02
2023-04-19T05:15:37.480Z,3.99
2023-04-19T05:16:37.532Z,4.05
2023-04-19T05:17:37.571Z,4.15
2023-04-19T05:18:37.578Z,4.12
2023-04-19T05:19:37.460Z,4.13
2023-04-19T05:20:37.564Z,4.24
2023-04-19T05:21:37.606Z,4.29
2023-04-19T05:22:37.892Z,4.33
2023-04-19T05:23:37.938Z,4.37
2023-04-19T05:24:37.524Z,4.46
2023-04-19T05:25:37.691Z,4.42
2023-04-19T05:26:37.627Z,4.39
2023-04-19T05:27:37.749Z,4.43
2023-04-19T05:28:38.397Z,4.48
2023-04-19T05:29:37.646Z,4.56
2023-04-19T05:30:37.684Z,4.52
2023-04-19T05:31:37.825Z,4.67
2023-04-19T05:32:37.941Z,4.62
2023-04-19T05:33:38.126Z,4.63
2023-04-19T05:34:37.743Z,4.62
2023-04-19T05:35:37.751Z,4.68
2023-04-19T05:36:37.918Z,4.79
2023-04-19T05:37:38.219Z,4.77
2023-04-19T05:38:37.794Z,4.75
2023-04-19T05:39:37.916Z,4.77
2023-04-19T05:40:37.896Z,4.87
2023-04-19T05:41:37.834Z,4.84
2023-04-19T05:42:38.265Z,4.93
2023-04-19T05:43:37.918Z,4.95
2023-04-19T05:44:38.087Z,5.11
2023-04-19T05:45:38.018Z,5.17
2023-04-19T05:46:38.128Z,5.15
2023-04-19T05:47:38.015Z,5.17
2023-04-19T05:48:37.995Z,5.22
2023-04-19T05:49:37.973Z,5.17
2023-04-19T05:50:38.178Z,5.2
2023-04-19T05:51:38.002Z,5.42
2023-04-19T05:52:38.059Z,5.38
2023-04-19T05:53:38.090Z,5.53
2023-04-19T05:54:38.078Z,5.47
2023-04-19T05:55:38.082Z,5.55
2023-04-19T05:56:38.516Z,5.57
2023-04-19T05:57:38.092Z,5.76
2023-04-19T05:58:38.151Z,5.71
2023-04-19T05:59:38.282Z,5.78
2023-04-19T06:00:38.178Z,5.61
2023-04-19T06:01:38.270Z,5.69
2023-04-19T06:02:38.379Z,5.84
2023-04-19T06:03:38.344Z,5.8
2023-04-19T06:04:38.440Z,5.91
2023-04-19T06:05:38.370Z,5.86
2023-04-19T06:06:38.284Z,5.94
2023-04-19T06:07:43.258Z,6.05
2023-04-19T06:08:38.763Z,6.17
2023-04-19T06:09:38.800Z,6.13
2023-04-19T06:10:52.629Z,6.03
2023-04-19T06:11:50.006Z,6.06
2023-04-19T06:12:43.165Z,6.16
2023-04-19T06:13:43.460Z,5.87
2023-04-19T06:14:43.095Z,5.9
2023-04-19T06:15:43.387Z,6.05
2023-04-19T06:16:43.233Z,6.03
2023-04-19T06:17:43.289Z,6.14
2023-04-19T06:18:43.164Z,6.06
2023-04-19T06:19:43.208Z,6.04
2023-04-19T06:20:43.208Z,6.14
2023-04-19T06:21:43.214Z,6.13
2023-04-19T06:22:44.914Z,6.06
2023-04-19T06:23:43.286Z,6.25
2023-04-19T06:24:46.266Z,6.29
2023-04-19T06:25:43.545Z,6.4
2023-04-19T06:26:43.346Z,6.42
2023-04-19T06:27:43.511Z,6.4
2023-04-19T06:28:43.478Z,6.38
2023-04-19T06:29:43.444Z,6.57
2023-04-19T06:30:43.724Z,6.65
2023-04-19T06:31:43.505Z,6.61
2023-04-19T06:32:43.519Z,6.71
2023-04-19T06:33:43.411Z,6.89
2023-04-19T06:34:43.531Z,6.8
2023-04-19T06:35:43.474Z,6.63
2023-04-19T06:36:43.476Z,6.56
2023-04-19T06:37:43.506Z,6.63
2023-04-19T06:38:43.644Z,6.75
2023-04-19T06:39:43.520Z,7.12
2023-04-19T06:40:43.711Z,7.18
2023-04-19T06:41:43.524Z,7.23
2023-04-19T06:42:43.546Z,7.07
2023-04-19T06:43:43.731Z,7.12
2023-04-19T06:44:43.581Z,7.2
2023-04-19T06:45:43.591Z,7.14
2023-04-19T06:46:43.595Z,7.25
2023-04-19T06:47:44.009Z,7.38
2023-04-19T06:48:43.805Z,7.49
2023-04-19T06:49:43.647Z,7.41
2023-04-19T06:50:43.635Z,7.52
2023-04-19T06:51:43.770Z,7.47
2023-04-19T06:52:43.631Z,7.54
2023-04-19T06:53:43.676Z,7.53
2023-04-19T06:54:47.247Z,7.6
2023-04-19T06:55:44.562Z,7.7
2023-04-19T06:56:45.021Z,7.81
2023-04-19T06:57:43.932Z,7.88
2023-04-19T06:58:43.976Z,7.85
2023-04-19T06:59:44.177Z,7.95
2023-04-19T07:00:43.995Z,7.96
2023-04-19T07:01:44.244Z,8.09
2023-04-19T07:02:44.315Z,8.16
2023-04-19T07:03:45.644Z,8.11
2023-04-19T07:04:44.346Z,8.17
2023-04-19T07:05:44.093Z,8.22
2023-04-19T07:06:44.096Z,8.28
2023-04-19T07:07:44.331Z,8.42
2023-04-19T07:09:45.270Z,8.38
2023-04-19T07:10:45.285Z,8.5
2023-04-19T07:11:45.281Z,8.4
2023-04-19T07:12:45.390Z,8.64
2023-04-19T07:13:45.379Z,8.5
2023-04-19T07:14:45.399Z,8.62
2023-04-19T07:15:45.450Z,8.54
2023-04-19T07:16:46.015Z,8.63
2023-04-19T07:17:45.656Z,8.76
2023-04-19T07:18:45.476Z,8.73
2023-04-19T07:19:47.255Z,8.76
2023-04-19T07:20:45.407Z,8.89
2023-04-19T07:21:45.454Z,9.03
2023-04-19T07:22:45.503Z,8.98
2023-04-19T07:23:45.446Z,8.96
2023-04-19T07:24:45.539Z,9.14
2023-04-19T07:25:45.502Z,9.34
2023-04-19T07:26:45.575Z,9.35
2023-04-19T07:27:45.561Z,9.3
2023-04-19T07:28:45.960Z,9.26
2023-04-19T07:29:45.525Z,9.35
2023-04-19T07:30:45.586Z,9.34
2023-04-19T07:31:45.590Z,9.2
2023-04-19T07:32:45.731Z,9.42
2023-04-19T07:33:45.709Z,9.73
2023-04-19T07:34:45.630Z,9.64
2023-04-19T07:35:45.638Z,9.65
2023-04-19T07:36:46.445Z,9.43
2023-04-19T07:37:45.799Z,9.49
2023-04-19T07:38:45.676Z,9.57
2023-04-19T07:39:45.713Z,9.76
2023-04-19T07:40:45.804Z,9.63
2023-04-19T07:41:45.916Z,9.55
2023-04-19T07:42:45.685Z,9.66
2023-04-19T07:43:45.977Z,9.66
2023-04-19T07:44:45.732Z,9.8
2023-04-19T07:45:46.292Z,9.93
2023-04-19T07:46:45.819Z,9.96
2023-04-19T07:47:45.815Z,10.1
2023-04-19T07:48:45.777Z,9.97
2023-04-19T07:49:45.733Z,9.95
2023-04-19T07:50:45.761Z,9.94
2023-04-19T07:51:45.818Z,10.04
2023-04-19T07:52:45.852Z,10.07
2023-04-19T07:53:46.844Z,10.14
2023-04-19T07:54:45.884Z,10.35
2023-04-19T07:55:45.943Z,10.04
2023-04-19T07:56:46.175Z,10.12
2023-04-19T07:57:45.953Z,10.46
2023-04-19T07:58:50.780Z,10.58
2023-04-19T07:59:48.706Z,10.67
2023-04-19T08:00:48.848Z,10.34
2023-04-19T08:01:49.253Z,10.29
2023-04-19T08:02:49.403Z,10.34
2023-04-19T08:03:48.877Z,10.24
2023-04-19T08:04:48.859Z,10.38
2023-04-19T08:05:48.748Z,10.49
2023-04-19T08:06:48.721Z,10.8
2023-04-19T08:07:48.771Z,10.69
2023-04-19T08:08:50.111Z,10.37
2023-04-19T08:09:49.077Z,10.27
2023-04-19T08:10:48.888Z,10.18
2023-04-19T08:11:49.476Z,10.23
2023-04-19T08:13:03.724Z,10.48
2023-04-19T08:14:04.628Z,10.67
2023-04-19T08:15:06.887Z,10.74
2023-04-19T08:17:22.235Z,11
2023-04-19T08:17:59.035Z,10.97
2023-04-19T08:18:59.021Z,10.79
2023-04-19T08:19:59.182Z,10.87
2023-04-19T08:20:59.058Z,10.95
2023-04-19T08:21:59.055Z,10.81
2023-04-19T08:23:04.502Z,10.64
2023-04-19T08:24:02.059Z,10.66
2023-04-19T08:25:02.204Z,10.8
2023-04-19T08:26:02.116Z,10.94
2023-04-19T08:27:02.065Z,11.03
2023-04-19T08:28:02.130Z,11.13
2023-04-19T08:29:02.486Z,10.98
2023-04-19T08:30:02.330Z,10.96
2023-04-19T08:31:05.282Z,11.19
2023-04-19T08:32:02.807Z,11.19
2023-04-19T08:33:02.602Z,11.3
2023-04-19T08:34:04.560Z,11.37
2023-04-19T08:35:02.211Z,11.31
2023-04-19T08:36:02.192Z,11.34
2023-04-19T08:37:04.386Z,11.27
2023-04-19T08:38:03.353Z,11
2023-04-19T08:39:06.933Z,11.03
2023-04-19T08:40:04.039Z,11.3
2023-04-19T08:41:03.532Z,11.3
2023-04-19T08:42:13.397Z,11.48
2023-04-19T08:43:05.941Z,11.49
2023-04-19T08:44:06.164Z,11.61
2023-04-19T08:46:05.767Z,11.58
2023-04-19T08:47:05.999Z,11.46
2023-04-19T08:48:06.311Z,11.28
2023-04-19T08:49:06.004Z,11.42
2023-04-19T08:50:17.187Z,11.34
2023-04-19T08:51:08.350Z,11.71
2023-04-19T08:52:08.824Z,11.92
2023-04-19T08:53:23.848Z,11.86
2023-04-19T08:54:12.198Z,12
2023-04-19T08:55:12.124Z,12.07
2023-04-19T08:56:21.166Z,11.94
2023-04-19T08:57:14.856Z,11.75
2023-04-19T08:58:26.276Z,11.66
2023-04-19T08:59:18.523Z,11.58
2023-04-19T09:00:16.559Z,11.67
2023-04-19T09:01:26.787Z,11.57
2023-04-19T09:02:20.417Z,11.58
2023-04-19T09:03:20.495Z,11.33
2023-04-19T09:04:34.870Z,11.53
2023-04-19T09:05:22.943Z,11.56
2023-04-19T09:06:23.063Z,12.01
2023-04-19T09:07:24.220Z,11.84
2023-04-19T09:08:32.011Z,11.96
2023-04-19T09:10:25.040Z,11.51
2023-04-19T09:11:37.196Z,11.48
2023-04-19T09:12:28.900Z,11.49
2023-04-19T09:13:29.484Z,11.59
2023-04-19T09:14:29.255Z,11.83
2023-04-19T09:15:38.843Z,11.69
2023-04-19T09:16:30.845Z,12.13
2023-04-19T09:17:31.291Z,12.13
2023-04-19T09:18:33.047Z,12.23
2023-04-19T09:20:42.403Z,12.54
2023-04-19T09:21:34.079Z,12.79
2023-04-19T09:22:34.108Z,12.55
2023-04-19T09:23:35.311Z,12.96
2023-04-19T09:25:52.944Z,12.66
2023-04-19T09:26:36.288Z,12.35
2023-04-19T09:27:36.176Z,12.11
2023-04-19T09:28:35.980Z,12.34
2023-04-19T09:29:36.070Z,12.56
2023-04-19T09:30:43.627Z,12.36
2023-04-19T09:31:50.488Z,12.38
2023-04-19T09:32:48.627Z,12.51
2023-04-19T09:33:41.084Z,12.89
2023-04-19T09:34:50.624Z,12.69
2023-04-19T09:35:43.105Z,12.58
2023-04-19T09:36:42.485Z,12.84
2023-04-19T09:38:50.361Z,12.67
2023-04-19T09:39:42.449Z,12.89
2023-04-19T09:40:43.125Z,13
2023-04-19T09:41:54.364Z,12.71
2023-04-19T09:44:02.341Z,12.74
2023-04-19T09:45:48.477Z,12.8
2023-04-19T09:46:49.406Z,12.72
2023-04-19T09:48:49.339Z,12.42
2023-04-19T09:51:05.069Z,12.53
2023-04-19T09:51:54.931Z,12.43
2023-04-19T09:52:54.985Z,12.38
2023-04-19T09:53:55.098Z,12.67
2023-04-19T09:54:54.976Z,12.77
2023-04-19T09:56:01.552Z,12.59
2023-04-19T09:56:57.401Z,12.32
2023-04-19T09:57:55.328Z,12.24
2023-04-19T09:59:01.601Z,12.57
2023-04-19T09:59:55.503Z,12.62
2023-04-19T10:01:06.584Z,12.99
2023-04-19T10:01:59.303Z,12.44
2023-04-19T10:02:58.757Z,12.53
2023-04-19T10:04:03.633Z,12.51
2023-04-19T10:05:19.870Z,12.44
2023-04-19T10:06:10.626Z,12.74
2023-04-19T10:07:29.271Z,12.62
2023-04-19T10:08:08.948Z,12.79
2023-04-19T10:09:08.275Z,13.21
2023-04-19T10:10:19.539Z,13.26
2023-04-19T10:11:12.684Z,13.17
2023-04-19T10:12:38.568Z,13.05
2023-04-19T10:13:21.390Z,13.3
2023-04-19T10:14:15.166Z,13.27
2023-04-19T10:15:14.660Z,12.96
2023-04-19T10:16:19.575Z,13.07
2023-04-19T10:17:16.860Z,12.79
2023-04-19T10:18:17.237Z,12.66
2023-04-19T10:19:18.538Z,12.52
2023-04-19T10:21:21.596Z,13.04
2023-04-19T10:22:20.887Z,13.07
2023-04-19T10:23:21.868Z,13.28
2023-04-19T10:24:20.751Z,13.62
2023-04-19T10:26:23.891Z,13.56
2023-04-19T10:27:25.502Z,13.19
2023-04-19T10:28:23.940Z,13.15
2023-04-19T10:30:29.451Z,13.07
2023-04-19T10:31:30.140Z,13.15
2023-04-19T10:32:30.003Z,13.12
2023-04-19T10:33:34.553Z,12.95
2023-04-19T10:34:37.078Z,13.12
2023-04-19T10:35:34.989Z,13.18
2023-04-19T10:36:33.778Z,13.27
2023-04-19T10:37:33.828Z,13.42
2023-04-19T10:38:41.029Z,13.82
2023-04-19T10:39:44.518Z,13.99
2023-04-19T10:45:52.378Z,13.64
2023-04-19T10:46:51.924Z,13.78
2023-04-19T10:47:52.069Z,14.16
2023-04-19T10:49:01.613Z,13.8
2023-04-19T10:49:53.459Z,13.44
2023-04-19T10:51:55.044Z,13.47
2023-04-19T10:52:54.312Z,13.67
2023-04-19T10:54:57.329Z,13.9
2023-04-19T10:55:57.370Z,13.88
2023-04-19T10:56:58.827Z,13.98
2023-04-19T10:58:06.916Z,13.55
2023-04-19T11:04:19.490Z,13.38
2023-04-19T11:05:18.403Z,13.44
2023-04-19T11:06:19.253Z,13.58
2023-04-19T11:07:17.059Z,13.58
2023-04-19T11:08:22.639Z,13.92
2023-04-19T11:09:23.005Z,13.73
2023-04-19T11:10:29.363Z,13.75
2023-04-19T11:11:21.054Z,13.5
2023-04-19T11:12:21.497Z,13.32
2023-04-19T11:13:21.731Z,13.46
2023-04-19T11:14:21.323Z,13.61
2023-04-19T11:15:24.452Z,13.68
2023-04-19T11:16:31.129Z,13.95
2023-04-19T11:17:26.273Z,13.7
2023-04-19T11:18:29.465Z,13.92
2023-04-19T11:19:26.550Z,13.84
2023-04-19T11:20:26.364Z,13.57
2023-04-19T11:21:27.116Z,13.51
2023-04-19T11:22:36.788Z,13.37
2023-04-19T11:23:28.507Z,13.53
2023-04-19T11:24:28.710Z,13.41
2023-04-19T11:25:28.538Z,13.31
2023-04-19T11:26:28.561Z,13.38
2023-04-19T11:27:28.769Z,13.59
2023-04-19T11:28:28.565Z,13.69
2023-04-19T11:29:28.874Z,13.68
2023-04-19T11:30:29.398Z,13.75
2023-04-19T11:31:28.987Z,13.7
2023-04-19T11:32:28.705Z,13.69
2023-04-19T11:33:32.816Z,13.82
2023-04-19T11:34:29.555Z,13.72
2023-04-19T11:35:29.703Z,13.69
2023-04-19T11:36:31.596Z,13.84
2023-04-19T11:37:32.635Z,13.76
2023-04-19T11:38:31.035Z,13.93
2023-04-19T11:39:30.712Z,13.64
2023-04-19T11:40:31.068Z,13.8
2023-04-19T11:41:36.653Z,14.02
2023-04-19T11:42:33.615Z,13.88
2023-04-19T11:43:33.738Z,13.91
2023-04-19T11:44:34.065Z,13.83
2023-04-19T11:45:38.173Z,13.39
2023-04-19T11:46:36.153Z,13.2
2023-04-19T11:47:46.482Z,13.26
2023-04-19T11:48:39.170Z,13.29
2023-04-19T11:49:38.543Z,13.37
2023-04-19T11:50:44.542Z,13.36
2023-04-19T11:51:41.954Z,13.51
2023-04-19T11:52:41.280Z,13.52
2023-04-19T11:53:41.597Z,13.44
2023-04-19T11:54:41.265Z,13.59
2023-04-19T11:55:44.972Z,14.01
2023-04-19T11:57:43.290Z,14.1
2023-04-19T11:58:47.092Z,14.3
2023-04-19T12:00:46.861Z,14.82
2023-04-19T12:01:43.677Z,14.89
2023-04-19T12:02:46.306Z,15.18
2023-04-19T12:04:46.250Z,14.82
2023-04-19T12:06:56.119Z,14.99
2023-04-19T12:08:55.241Z,14.88
2023-04-19T12:09:54.211Z,14.75
2023-04-19T12:10:57.521Z,14.72
2023-04-19T12:11:54.233Z,14.76
2023-04-19T12:12:54.373Z,14.84
2023-04-19T12:14:56.393Z,14.73
2023-04-19T12:15:56.641Z,14.58
2023-04-19T12:17:09.585Z,14.56
2023-04-19T12:18:00.364Z,14.44
2023-04-19T12:18:57.214Z,14.75
2023-04-19T12:19:57.436Z,14.89
2023-04-19T12:20:58.849Z,14.92
2023-04-19T12:22:07.364Z,15.08
2023-04-19T12:22:59.275Z,15
2023-04-19T12:24:00.295Z,14.77
2023-04-19T12:24:59.115Z,14.81
2023-04-19T12:26:04.249Z,14.98
2023-04-19T12:27:01.925Z,15.03
2023-04-19T12:28:02.693Z,15.17
2023-04-19T12:29:01.907Z,15.03
2023-04-19T12:30:01.057Z,14.92
2023-04-19T12:31:01.030Z,14.53
2023-04-19T12:32:01.536Z,14.8
2023-04-19T12:33:01.125Z,15.03
2023-04-19T12:34:01.066Z,15.17
2023-04-19T12:35:01.095Z,15.46
2023-04-19T12:36:01.121Z,15.55
2023-04-19T12:37:01.324Z,15.78
2023-04-19T12:38:01.202Z,15.74
2023-04-19T12:39:01.189Z,15.82
2023-04-19T12:40:01.171Z,15.91
2023-04-19T12:41:01.205Z,15.6
2023-04-19T12:42:01.406Z,15.61
2023-04-19T12:43:01.225Z,15.5
2023-04-19T12:44:01.195Z,15.55
2023-04-19T12:45:01.543Z,15.56
2023-04-19T12:46:01.308Z,15.53
2023-04-19T12:47:01.332Z,15.36
2023-04-19T12:48:01.349Z,15.81
2023-04-19T12:49:01.354Z,15.84
2023-04-19T12:50:01.578Z,15.36
2023-04-19T12:51:01.719Z,15.56
2023-04-19T12:52:01.378Z,15.55
2023-04-19T12:53:01.420Z,15.6
2023-04-19T12:54:01.402Z,15.68
2023-04-19T12:55:01.689Z,15.73
2023-04-19T12:56:01.476Z,15.75
2023-04-19T12:57:03.350Z,15.52
2023-04-19T12:58:01.467Z,15.53
2023-04-19T12:59:01.798Z,15.57
2023-04-19T13:00:01.701Z,15.68
2023-04-19T13:01:01.595Z,15.78
2023-04-19T13:02:01.765Z,15.45
2023-04-19T13:03:01.690Z,15.6
2023-04-19T13:04:02.198Z,15.98
2023-04-19T13:05:02.925Z,15.85
2023-04-19T13:06:02.504Z,15.88
2023-04-19T13:07:02.169Z,15.9
2023-04-19T13:08:02.157Z,15.97
2023-04-19T13:09:11.439Z,16.25
2023-04-19T13:10:06.481Z,15.81
2023-04-19T13:11:05.894Z,15.89
2023-04-19T13:12:06.087Z,15.92
2023-04-19T13:13:06.063Z,16.01
2023-04-19T13:14:05.985Z,15.78
2023-04-19T13:15:06.803Z,15.84
2023-04-19T13:16:06.422Z,15.99
2023-04-19T13:17:06.014Z,16.16
2023-04-19T13:18:06.121Z,15.94
2023-04-19T13:19:06.035Z,15.81
2023-04-19T13:20:06.813Z,15.82
2023-04-19T13:21:08.289Z,15.83
2023-04-19T13:22:06.125Z,16.05
2023-04-19T13:23:06.129Z,15.64
2023-04-19T13:24:06.515Z,15.64
2023-04-19T13:25:06.614Z,15.62
2023-04-19T13:26:06.765Z,15.64
2023-04-19T13:27:08.712Z,15.75
2023-04-19T13:28:06.476Z,15.76
2023-04-19T13:29:06.463Z,15.95
2023-04-19T13:30:06.851Z,15.61
2023-04-19T13:31:06.363Z,15.98
2023-04-19T13:32:06.425Z,15.62
2023-04-19T13:33:08.822Z,15.74
2023-04-19T13:34:06.287Z,15.44
2023-04-19T13:35:06.827Z,15.56
2023-04-19T13:36:06.790Z,15.59
2023-04-19T13:37:06.777Z,15.34
2023-04-19T13:38:06.325Z,15.32
2023-04-19T13:39:08.283Z,15.67
2023-04-19T13:40:17.380Z,15.72
2023-04-19T13:41:10.408Z,15.84
2023-04-19T13:42:10.292Z,15.45
2023-04-19T13:43:10.349Z,15.14
2023-04-19T13:44:10.336Z,15.31
2023-04-19T13:45:10.879Z,15.55
2023-04-19T13:46:10.540Z,15.37